Time;durP1;ratioP1;P1;durP2;ratioP2;P2;SDS_P1;SDS_P2;PMS_P1;PMS_P2;Temp;Humidity;BMP_temperature;BMP_pressure;BME280_temperature;BME280_humidity;BME280_pressure;Samples;Min_cycle;Max_cycle;Signal;HPM_P1;HPM_P2
2022/02/05 00:00:34;;;;;;;20.60;6.88;;;7.50;99.90;;;7.41;71.15;101410.31;5094231;28;20052;-58
2022/02/05 00:03:14;;;;;;;17.17;5.57;;;7.50;99.90;;;7.56;71.79;101453.59;5112517;28;20047;-58
2022/02/05 00:05:49;;;;;;;17.23;6.75;;;7.50;99.90;;;7.53;72.00;101435.09;5113633;28;20047;-58
2022/02/05 00:08:29;;;;;;;22.73;6.32;;;7.50;99.90;;;7.57;72.69;101452.72;5116348;28;20047;-58
2022/02/05 00:11:24;;;;;;;;;;;7.50;99.90;;;7.57;72.90;101441.31;5116528;28;20470;-58
2022/02/05 00:39:18;;;;;;;19.15;6.57;;;7.40;99.90;;;7.41;71.60;101469.13;5025829;28;20068;-57
2022/02/05 00:41:51;;;;;;;15.27;5.88;;;7.30;99.90;;;7.43;71.69;101461.22;5069568;28;20048;-57
2022/02/05 00:44:20;;;;;;;16.38;6.05;;;7.40;99.90;;;7.36;71.18;101457.59;5068277;28;20489;-57
2022/02/05 00:46:50;;;;;;;18.55;6.05;;;7.30;99.90;;;7.35;71.37;101466.38;5069390;28;20458;-57
2022/02/05 00:49:20;;;;;;;21.73;6.47;;;7.30;99.90;;;7.29;70.93;101469.78;5069394;28;20061;-57
2022/02/05 00:51:53;;;;;;;20.02;5.15;;;7.30;99.90;;;7.36;71.02;101478.66;5068225;28;20106;-57
2022/02/05 00:54:24;;;;;;;22.27;6.50;;;7.30;99.90;;;7.09;70.96;101443.94;5069496;28;20041;-57
2022/02/05 00:59:39;;;;;;;22.15;6.05;;;7.30;99.90;;;7.32;71.14;101495.25;5069134;28;20547;-58
2022/02/05 01:02:07;;;;;;;23.48;6.28;;;7.30;99.90;;;7.25;71.92;101489.00;5068018;28;20542;-57
2022/02/05 01:04:37;;;;;;;21.80;6.95;;;7.20;99.90;;;7.27;71.60;101484.66;5051641;28;20053;-57
2022/02/05 01:07:05;;;;;;;16.98;6.47;;;7.30;99.90;;;7.34;71.97;101500.56;5069422;28;20114;-57
2022/02/05 01:09:34;;;;;;;16.10;5.30;;;7.30;99.90;;;7.34;72.32;101506.69;5068847;28;20475;-57
2022/02/05 01:12:05;;;;;;;20.38;5.93;;;7.30;99.90;;;7.27;72.54;101504.81;5068894;28;20434;-57
2022/02/05 01:14:43;;;;;;;;;;;7.30;99.90;;;7.27;72.29;101515.31;5069156;28;20078;-58
2022/02/05 01:17:13;;;;;;;15.45;5.40;;;7.20;99.90;;;7.21;73.01;101502.94;5069005;28;19986;-57
2022/02/05 01:22:29;;;;;;;16.85;6.57;;;7.20;99.90;;;7.28;73.35;101515.34;5028203;28;20094;-57
2022/02/05 01:24:58;;;;;;;22.77;6.35;;;7.20;99.90;;;7.27;73.80;101516.22;5068581;28;20049;-57
2022/02/05 01:27:35;;;;;;;22.27;6.78;;;7.20;99.90;;;7.25;73.78;101509.16;5059447;28;20116;-57
2022/02/05 01:30:15;;;;;;;26.45;6.35;;;7.20;99.90;;;7.25;74.22;101525.81;5055397;28;20486;-57
2022/02/05 01:32:52;;;;;;;;;;;7.20;99.90;;;7.26;74.49;101513.53;5055809;28;20037;-57
2022/02/05 01:35:30;;;;;;;23.73;6.40;;;7.20;99.90;;;7.28;73.75;101528.50;5055218;28;19978;-57
2022/02/05 01:49:35;;;;;;;22.83;6.18;;;7.20;99.90;;;7.06;73.83;101518.44;5055143;28;20041;-57
2022/02/05 01:52:12;;;;;;;21.73;5.93;;;7.20;99.90;;;7.27;73.84;101555.69;5054909;28;20041;-57
2022/02/05 01:55:03;;;;;;;18.88;5.93;;;7.20;99.90;;;7.25;73.68;101554.78;5054943;28;20052;-57
2022/02/05 01:57:46;;;;;;;18.30;5.97;;;7.20;99.90;;;7.45;72.90;101568.31;5055256;28;20049;-57
2022/02/05 02:05:56;;;;;;;31.63;6.32;;;7.40;99.90;;;7.57;73.04;101586.94;5054804;28;20056;-57
2022/02/05 02:11:28;;;;;;;20.92;6.82;;;7.50;99.90;;;7.70;73.95;101590.72;5053483;28;20465;-57
2022/02/05 02:14:31;;;;;;;26.17;6.57;;;7.60;99.90;;;7.72;74.16;101584.63;5054715;28;20044;-57
2022/02/05 02:17:47;;;;;;;22.10;6.47;;;7.60;99.90;;;7.75;74.18;101592.56;5054123;28;20048;-57
2022/02/05 02:20:48;;;;;;;23.13;7.45;;;7.70;99.90;;;7.64;74.59;101591.50;5054259;28;20421;-57
2022/02/05 02:23:31;;;;;;;23.33;6.25;;;7.60;99.90;;;7.52;75.06;101607.03;5054245;28;20486;-57
2022/02/05 02:26:06;;;;;;;20.77;6.55;;;7.50;99.90;;;7.53;75.30;101600.91;5086920;28;20107;-57
2022/02/05 02:28:45;;;;;;;21.15;6.60;;;7.50;99.90;;;7.56;75.28;101605.34;5054360;28;20049;-58
2022/02/05 02:31:19;;;;;;;18.40;5.75;;;7.50;99.90;;;7.44;75.26;101610.38;5054546;28;20037;-57
2022/02/05 02:33:51;;;;;;;23.10;6.45;;;7.40;99.90;;;7.38;75.26;101599.72;5054157;28;20049;-57
2022/02/05 02:36:30;;;;;;;20.90;6.63;;;7.30;99.90;;;7.41;75.21;101612.97;5054293;28;20041;-57
2022/02/05 02:39:05;;;;;;;24.25;6.85;;;7.30;99.90;;;7.44;75.23;101613.91;5052156;28;20099;-57
2022/02/05 02:41:41;;;;;;;24.55;6.55;;;7.40;99.90;;;7.43;74.95;101616.50;5054056;28;20041;-62
2022/02/05 02:44:14;;;;;;;21.38;6.38;;;7.40;99.90;;;7.40;75.57;101619.97;5054422;28;20041;-61
2022/02/05 02:46:42;;;;;;;19.50;7.15;;;7.30;99.90;;;7.56;74.67;101616.78;5054847;28;20049;-62
2022/02/05 02:49:15;;;;;;;19.00;6.50;;;7.40;99.90;;;7.51;74.60;101609.66;5054259;28;20052;-62
2022/02/05 02:57:22;;;;;;;18.73;6.43;;;7.60;99.90;;;7.62;74.35;101619.53;5054040;28;20490;-61
2022/02/05 02:59:56;;;;;;;17.75;6.10;;;7.60;99.90;;;7.69;74.59;101631.06;5053118;28;20048;-61
2022/02/05 03:02:27;;;;;;;14.40;6.43;;;7.60;99.90;;;7.49;74.52;101617.50;5054070;28;20124;-62
2022/02/05 03:04:58;;;;;;;25.02;6.68;;;7.50;99.90;;;7.58;74.23;101636.13;5054275;28;20051;-61
2022/02/05 03:07:29;;;;;;;21.33;5.85;;;7.50;99.90;;;6.92;74.77;101540.94;5053966;28;20053;-61
2022/02/05 03:09:59;;;;;;;18.05;6.18;;;7.40;99.90;;;7.53;74.84;101637.75;5052807;28;20482;-61
2022/02/05 03:12:27;;;;;;;21.45;6.60;;;7.40;99.90;;;7.42;74.74;101638.41;5054135;28;20375;-61
2022/02/05 03:14:56;;;;;;;16.25;6.25;;;7.30;99.90;;;7.48;74.71;101633.28;5053607;28;20041;-61
2022/02/05 03:17:26;;;;;;;22.58;6.70;;;7.40;99.90;;;7.32;74.73;101608.38;5053665;28;20499;-61
2022/02/05 03:19:57;;;;;;;25.60;6.82;;;7.30;99.90;;;7.17;75.05;101619.50;5053832;28;20090;-61
2022/02/05 03:22:26;;;;;;;24.60;6.82;;;7.30;99.90;;;7.25;75.25;101631.06;5054263;28;20044;-61
2022/02/05 03:24:55;;;;;;;23.85;6.20;;;7.20;99.90;;;6.79;75.36;101540.63;5053616;28;20041;-61
2022/02/05 03:27:25;;;;;;;20.10;7.45;;;7.20;99.90;;;7.32;75.14;101633.84;5053521;28;20049;-61
2022/02/05 03:29:53;;;;;;;17.02;5.90;;;7.20;99.90;;;7.11;75.25;101631.59;5053855;28;20045;-61
2022/02/05 03:32:24;;;;;;;24.00;6.80;;;7.10;99.90;;;7.05;75.28;101642.88;5053454;28;20055;-61
2022/02/05 03:34:53;;;;;;;19.27;6.13;;;7.00;99.90;;;7.18;74.99;101644.06;5053517;28;20041;-61
2022/02/05 03:37:22;;;;;;;20.45;6.97;;;7.10;99.90;;;7.11;75.44;101650.03;5053323;28;20044;-61
2022/02/05 03:39:50;;;;;;;20.42;6.60;;;7.10;99.90;;;6.96;75.60;101629.53;5052631;28;20457;-61
2022/02/05 03:42:19;;;;;;;18.10;6.38;;;7.00;99.90;;;7.09;75.66;101643.84;5053367;28;20520;-61
2022/02/05 03:44:49;;;;;;;20.73;6.10;;;7.00;99.90;;;7.09;75.91;101649.09;5052281;28;20139;-61
2022/02/05 03:47:17;;;;;;;23.48;6.95;;;7.00;99.90;;;7.10;75.94;101661.41;5052230;28;20415;-61
2022/02/05 03:49:46;;;;;;;25.90;6.18;;;7.00;99.90;;;7.07;75.66;101643.81;5052982;28;20493;-61
2022/02/05 03:52:14;;;;;;;22.67;6.85;;;7.00;99.90;;;6.84;76.14;101644.16;5053155;28;20079;-61
2022/02/05 03:54:44;;;;;;;21.52;6.97;;;7.00;99.90;;;7.05;76.30;101663.03;5052108;28;20056;-61
2022/02/05 03:57:13;;;;;;;19.58;6.57;;;7.00;99.90;;;7.00;76.02;101664.69;5053351;28;20090;-61
2022/02/05 03:59:41;;;;;;;25.63;7.10;;;6.90;99.90;;;7.04;76.37;101670.06;5053102;28;20478;-61
2022/02/05 04:02:12;;;;;;;21.83;5.85;;;7.00;99.90;;;7.06;76.17;101678.88;5053063;28;20041;-61
2022/02/05 04:04:40;;;;;;;25.08;6.28;;;7.00;99.90;;;7.04;76.48;101684.94;5053003;28;20548;-61
2022/02/05 04:07:09;;;;;;;23.52;6.75;;;7.00;99.90;;;7.18;76.35;101686.16;5053275;28;20103;-61
2022/02/05 04:09:42;;;;;;;21.13;6.68;;;7.10;99.90;;;6.84;76.34;101637.16;5052942;28;20439;-61
2022/02/05 04:17:44;;;;;;;15.68;6.13;;;7.10;99.90;;;6.99;76.34;101660.25;5022287;28;20556;-61
2022/02/05 04:20:12;;;;;;;18.35;6.15;;;7.10;99.90;;;7.16;76.69;101707.13;5053185;28;20479;-61
2022/02/05 04:22:43;;;;;;;22.30;7.60;;;7.10;99.90;;;6.23;76.75;101573.50;5053156;28;20040;-61
2022/02/05 04:25:12;;;;;;;;;;;7.00;99.90;;;7.05;77.13;101719.16;5053315;28;20458;-61
2022/02/05 04:27:40;;;;;;;17.75;6.28;;;7.00;99.90;;;7.14;77.26;101708.84;5052860;28;20458;-62
2022/02/05 04:30:11;;;;;;;20.67;6.38;;;7.00;99.90;;;7.29;76.80;101708.31;5052720;28;20504;-61
2022/02/05 04:32:39;;;;;;;25.55;6.10;;;7.20;99.90;;;7.33;76.99;101704.91;5052765;28;20111;-61
2022/02/05 04:35:10;;;;;;;23.13;6.18;;;7.20;99.90;;;7.43;76.76;101711.25;5052968;28;20120;-61
2022/02/05 04:37:38;;;;;;;21.63;5.80;;;7.30;99.90;;;7.39;77.10;101704.16;5068049;28;20055;-61
2022/02/05 04:40:21;;;;;;;24.45;7.13;;;7.30;99.90;;;7.30;76.89;101713.59;5052576;28;20380;-61
2022/02/05 04:42:59;;;;;;;20.55;6.32;;;7.20;99.90;;;7.01;77.51;101687.47;5052681;28;20041;-61
2022/02/05 04:45:49;;;;;;;24.52;7.20;;;7.10;99.90;;;6.98;77.48;101711.09;5053224;28;20103;-61
2022/02/05 04:48:45;;;;;;;19.88;6.63;;;7.10;99.90;;;7.19;77.57;101761.56;5052630;28;20128;-61
2022/02/05 04:54:37;;;;;;;16.65;6.38;;;7.20;99.90;;;7.26;77.39;101726.66;5151740;27;20374;-61
2022/02/05 04:57:23;;;;;;;20.23;7.60;;;7.20;99.90;;;7.18;78.25;101729.09;5130709;27;20043;-61
2022/02/05 05:00:17;;;;;;;22.55;6.85;;;7.10;99.90;;;7.25;78.38;101719.63;5130832;28;20047;-61
2022/02/05 05:02:58;;;;;;;26.45;6.63;;;7.20;99.90;;;7.26;78.40;101731.91;5130887;27;20401;-61
2022/02/05 05:05:43;;;;;;;;;;;7.20;99.90;;;7.26;78.04;101730.19;5131404;27;20035;-61
2022/02/05 05:08:33;;;;;;;18.58;5.95;;;7.20;99.90;;;7.10;78.31;101703.50;5131108;27;19920;-61
2022/02/05 05:11:40;;;;;;;22.55;6.13;;;7.20;99.90;;;7.14;78.32;101713.25;5130811;27;20047;-61
2022/02/05 05:19:46;;;;;;;17.67;5.88;;;7.00;99.90;;;6.95;78.05;101745.22;5130575;28;20039;-61
2022/02/05 05:22:16;;;;;;;21.15;6.07;;;6.90;99.90;;;6.95;77.92;101753.97;5130470;28;20074;-61
2022/02/05 05:24:46;;;;;;;;;;;6.80;99.90;;;6.95;77.17;101739.97;5130800;27;20476;-61
2022/02/05 05:27:16;;;;;;;28.33;7.15;;;7.00;99.90;;;7.10;76.69;101750.84;5130361;27;20418;-61
2022/02/05 05:29:45;;;;;;;20.88;6.60;;;7.00;99.90;;;6.99;76.49;101760.19;5129137;27;20082;-61
2022/02/05 05:32:13;;;;;;;26.08;6.57;;;7.00;99.90;;;6.97;76.67;101746.13;5146164;27;20048;-61
2022/02/05 05:34:42;;;;;;;22.30;6.45;;;6.90;99.90;;;6.98;76.53;101750.56;5130288;27;20124;-61
2022/02/05 05:37:10;;;;;;;20.40;6.40;;;6.90;99.90;;;6.59;75.96;101678.59;5130080;27;20035;-62
2022/02/05 05:39:41;;;;;;;22.58;6.72;;;6.90;99.90;;;6.95;75.74;101746.09;5130233;27;20047;-61
2022/02/05 05:42:14;;;;;;;17.42;6.40;;;6.90;99.90;;;7.15;75.47;101751.84;5130222;27;20075;-61
2022/02/05 05:45:01;;;;;;;24.88;6.80;;;7.00;99.90;;;5.11;75.54;101413.13;5130226;27;20047;-61
2022/02/05 05:47:36;;;;;;;21.58;5.85;;;6.90;99.90;;;6.71;76.01;101715.69;5129957;27;20075;-62
2022/02/05 05:50:12;;;;;;;25.30;7.28;;;6.90;99.90;;;6.96;75.78;101752.25;5130046;27;20039;-61
2022/02/05 05:52:41;;;;;;;19.98;6.25;;;6.90;99.90;;;7.01;75.73;101742.72;5129584;28;20047;-61
2022/02/05 05:55:09;;;;;;;28.10;6.57;;;6.90;99.90;;;6.96;75.93;101749.63;5128543;28;20561;-62
2022/02/05 05:57:38;;;;;;;22.77;5.80;;;6.90;99.90;;;7.02;76.00;101755.03;5129765;27;20051;-61
2022/02/05 06:00:09;;;;;;;19.67;6.43;;;6.90;99.90;;;7.00;75.85;101747.13;5129596;27;20480;-62
2022/02/05 06:02:38;;;;;;;14.57;6.40;;;7.00;99.90;;;7.08;75.77;101750.78;5129797;27;20378;-62
2022/02/05 06:05:08;;;;;;;15.98;6.05;;;7.00;99.90;;;7.00;75.95;101744.47;5118187;28;20074;-61
2022/02/05 06:07:36;;;;;;;19.60;6.40;;;6.90;99.90;;;6.85;75.67;101722.19;5116132;28;20097;-61
2022/02/05 06:10:09;;;;;;;17.88;6.28;;;6.90;99.90;;;7.12;76.13;101746.53;5115943;28;20059;-61
2022/02/05 06:12:38;;;;;;;21.25;6.38;;;7.00;99.90;;;7.07;76.20;101737.59;5115682;28;20039;-61
2022/02/05 06:15:10;;;;;;;21.40;7.28;;;7.00;99.90;;;7.08;76.44;101750.78;5116291;28;20114;-62
2022/02/05 06:17:38;;;;;;;24.55;7.35;;;7.00;99.90;;;7.10;76.49;101769.25;5114655;28;20051;-61
2022/02/05 06:20:08;;;;;;;21.85;6.78;;;7.10;99.90;;;6.84;76.58;101704.63;5115739;28;20475;-61
2022/02/05 06:22:38;;;;;;;19.10;6.95;;;7.10;99.90;;;7.19;76.82;101770.38;5115698;28;20548;-61
2022/02/05 06:25:08;;;;;;;20.05;6.85;;;7.10;99.90;;;7.28;76.63;101767.03;5115609;28;20089;-61
2022/02/05 06:27:37;;;;;;;17.98;6.60;;;7.20;99.90;;;7.23;76.52;101759.06;5115603;28;20052;-62
2022/02/05 06:30:09;;;;;;;14.98;6.13;;;7.20;99.90;;;7.43;76.37;101769.16;5115433;28;20554;-61
2022/02/05 06:32:37;;;;;;;21.48;6.47;;;7.30;99.90;;;7.43;76.17;101764.78;5115465;28;20545;-61
2022/02/05 06:35:06;;;;;;;22.23;7.05;;;7.30;99.90;;;7.42;76.62;101768.25;5115355;28;20457;-61
2022/02/05 06:37:35;;;;;;;18.65;6.78;;;7.30;99.90;;;7.41;76.26;101769.13;5115218;28;20054;-62
2022/02/05 06:40:05;;;;;;;26.67;7.38;;;7.30;99.90;;;7.46;76.07;101772.75;5115552;28;20074;-61
2022/02/05 06:42:34;;;;;;;18.38;6.38;;;7.40;99.90;;;7.31;76.56;101761.88;5115315;28;20047;-61
2022/02/05 06:45:04;;;;;;;19.38;6.50;;;7.30;99.90;;;7.30;76.46;101739.91;5115636;28;20473;-61
2022/02/05 06:47:36;;;;;;;20.23;7.00;;;7.30;99.90;;;7.21;76.04;101751.97;5115110;27;20044;-61
2022/02/05 06:50:06;;;;;;;18.63;6.27;;;7.30;99.90;;;7.41;75.73;101781.38;5115128;28;20040;-61
2022/02/05 06:52:35;;;;;;;16.88;6.13;;;7.30;99.90;;;7.50;75.21;101781.59;5115154;28;20465;-61
2022/02/05 06:55:05;;;;;;;17.02;5.55;;;7.40;99.90;;;7.42;75.24;101784.06;5114966;28;20418;-61
2022/02/05 06:57:33;;;;;;;22.55;6.85;;;7.40;99.90;;;7.60;75.37;101788.84;5115050;28;20492;-61
2022/02/05 07:00:02;;;;;;;21.95;6.20;;;7.50;99.90;;;7.56;75.18;101787.88;5115129;27;20078;-61
2022/02/05 07:02:31;;;;;;;13.82;5.78;;;7.50;99.90;;;7.65;74.99;101793.34;5114820;28;20048;-61
2022/02/05 07:05:01;;;;;;;17.90;6.00;;;7.50;99.90;;;7.52;75.45;101790.41;5114924;28;20101;-61
2022/02/05 07:07:30;;;;;;;18.40;6.32;;;7.50;99.90;;;7.62;75.23;101809.09;5115067;28;20465;-61
2022/02/05 07:09:58;;;;;;;17.30;6.13;;;7.50;99.90;;;7.60;75.51;101792.38;5114824;27;20100;-61
2022/02/05 07:12:27;;;;;;;19.70;6.45;;;7.50;99.90;;;7.61;75.52;101796.78;5130583;27;20047;-61
2022/02/05 07:15:02;;;;;;;20.80;6.72;;;7.50;99.90;;;7.53;75.46;101798.34;5114332;28;20074;-61
2022/02/05 07:17:40;;;;;;;20.77;7.00;;;7.50;99.90;;;7.61;75.55;101804.66;5114137;28;20039;-61
2022/02/05 07:20:20;;;;;;;21.05;6.40;;;7.50;99.90;;;7.63;75.84;101816.13;5113309;28;20365;-61
2022/02/05 07:23:11;;;;;;;30.42;7.03;;;7.50;99.90;;;7.43;75.54;101801.63;5114559;28;20473;-61
2022/02/05 07:31:21;;;;;;;20.88;6.35;;;7.40;99.90;;;7.39;76.01;101828.72;5114430;28;20046;-61
2022/02/05 07:33:50;;;;;;;18.38;6.90;;;7.40;99.90;;;7.58;76.19;101836.19;5113985;28;20465;-62
2022/02/05 07:36:20;;;;;;;20.20;7.25;;;7.40;99.90;;;7.11;76.00;101742.09;5113045;28;20093;-62
2022/02/05 07:38:49;;;;;;;20.52;7.05;;;7.50;99.90;;;7.55;75.61;101828.22;5114160;28;20047;-62
2022/02/05 07:41:17;;;;;;;17.90;6.40;;;7.60;99.90;;;7.73;75.61;101839.19;5114037;28;20071;-61
2022/02/05 07:43:45;;;;;;;26.90;6.97;;;7.60;99.90;;;7.68;75.88;101845.19;5113791;28;20048;-61
2022/02/05 07:46:14;;;;;;;22.70;6.68;;;7.60;99.90;;;7.60;75.36;101829.22;5113986;28;20487;-61
2022/02/05 07:48:42;;;;;;;15.45;5.93;;;7.60;99.90;;;7.76;75.18;101844.50;5114046;28;20108;-61
2022/02/05 07:51:12;;;;;;;18.42;5.93;;;7.60;99.90;;;7.79;74.79;101827.88;5113766;28;20488;-61
2022/02/05 07:53:42;;;;;;;20.15;6.35;;;7.70;99.90;;;7.91;75.30;101844.88;5113501;28;20075;-63
2022/02/05 07:56:11;;;;;;;21.33;6.30;;;7.80;99.90;;;8.19;74.99;101839.31;5113368;28;20051;-62
2022/02/05 07:58:39;;;;;;;21.63;6.38;;;8.00;99.90;;;8.50;74.23;101838.22;5113368;28;20040;-62
2022/02/05 08:01:09;;;;;;;11.07;5.32;;;8.30;99.90;;;7.86;73.14;101683.19;5113638;28;20146;-62
2022/02/05 08:03:38;;;;;;;21.65;6.15;;;8.60;99.90;;;9.01;72.08;101825.09;5113770;28;20081;-62
2022/02/05 08:06:14;;;;;;;16.10;5.68;;;8.90;99.90;;;9.11;71.21;101816.47;5113405;28;20050;-61
2022/02/05 08:08:47;;;;;;;20.10;6.97;;;9.10;99.90;;;9.41;69.94;101840.72;5113528;28;20039;-62
2022/02/05 08:11:19;;;;;;;22.25;6.15;;;9.30;99.90;;;8.32;69.36;101653.38;5113013;28;20408;-61
2022/02/05 08:13:50;;;;;;;16.58;5.47;;;9.30;99.90;;;9.30;68.75;101842.31;5112870;28;20043;-63
2022/02/05 08:16:39;;;;;;;24.00;6.35;;;9.20;99.90;;;9.30;69.47;101842.31;5113349;28;20054;-62
2022/02/05 08:19:08;;;;;;;21.60;6.80;;;9.20;99.90;;;9.25;69.32;101841.34;5113496;28;20486;-61
2022/02/05 08:21:36;;;;;;;19.10;6.35;;;9.10;99.90;;;9.20;69.37;101834.19;5129140;27;20071;-61
2022/02/05 08:24:07;;;;;;;14.55;6.07;;;9.00;99.90;;;9.04;69.30;101827.75;5113117;28;20451;-61
2022/02/05 08:26:36;;;;;;;25.33;6.88;;;9.00;99.90;;;9.05;70.20;101821.66;5113102;28;20122;-61
2022/02/05 08:29:09;;;;;;;20.42;6.80;;;8.90;99.90;;;9.22;69.89;101832.47;5113200;28;20050;-62
2022/02/05 08:31:37;;;;;;;17.15;6.57;;;9.00;99.90;;;9.32;69.47;101829.13;5129041;27;20100;-62
2022/02/05 08:34:05;;;;;;;20.08;6.72;;;9.10;99.90;;;9.74;68.67;101846.50;5112838;28;20054;-62
2022/02/05 08:36:42;;;;;;;19.85;5.97;;;9.50;99.90;;;9.89;67.59;101849.38;5113087;28;20515;-63
2022/02/05 08:39:12;;;;;;;19.05;6.38;;;9.70;99.90;;;9.71;67.13;101845.59;5113031;28;20040;-62
2022/02/05 08:41:41;;;;;;;18.90;6.57;;;9.70;99.90;;;9.81;67.16;101869.50;5129040;27;20437;-62
2022/02/05 08:44:14;;;;;;;13.85;6.00;;;9.70;99.90;;;9.57;67.24;101842.75;5113119;28;20480;-64
2022/02/05 08:46:43;;;;;;;27.60;6.47;;;9.60;99.90;;;9.84;67.70;101869.56;5113030;28;20081;-63
2022/02/05 08:49:12;;;;;;;21.92;7.03;;;9.70;99.90;;;9.88;67.36;101871.38;5112978;28;20051;-63
2022/02/05 08:51:40;;;;;;;20.00;5.75;;;9.80;99.90;;;10.06;67.15;101881.34;5112977;28;20067;-63
2022/02/05 08:54:09;;;;;;;21.23;7.05;;;9.90;99.90;;;10.30;66.59;101871.09;5113015;28;20121;-63
2022/02/05 08:56:38;;;;;;;20.63;6.53;;;10.10;99.90;;;10.58;65.41;101893.50;5112975;28;20067;-63
2022/02/05 08:59:07;;;;;;;15.37;5.93;;;10.40;99.90;;;10.49;64.35;101903.97;5112873;28;20039;-64
2022/02/05 09:01:47;;;;;;;21.98;6.38;;;10.40;99.90;;;10.64;64.97;101906.81;5128599;27;20297;-62
2022/02/05 09:04:25;;;;;;;18.92;6.28;;;10.40;99.90;;;10.33;64.00;101876.44;5112933;28;20051;-61
2022/02/05 09:06:56;;;;;;;15.43;5.65;;;10.50;99.90;;;10.82;64.14;101909.63;5113078;28;20047;-61
2022/02/05 09:09:34;;;;;;;19.33;6.43;;;10.60;99.90;;;10.99;62.89;101901.91;5112826;28;20473;-63
2022/02/05 09:12:18;;;;;;;17.58;6.00;;;10.80;99.90;;;11.02;62.18;101881.63;5112700;28;20101;-61
2022/02/05 09:14:49;;;;;;;21.42;5.38;;;11.00;99.90;;;11.29;61.85;101894.25;5112985;28;20042;-62
2022/02/05 09:17:18;;;;;;;14.57;5.70;;;11.10;99.90;;;11.48;61.18;101883.81;5113181;28;20031;-64
2022/02/05 09:19:46;;;;;;;19.77;6.35;;;11.40;99.90;;;11.76;60.95;101888.50;5112621;28;20130;-63
2022/02/05 09:22:15;;;;;;;20.15;6.40;;;11.50;99.90;;;11.79;60.19;101896.47;5112611;28;20050;-63
2022/02/05 09:24:44;;;;;;;13.57;5.25;;;11.70;99.90;;;11.06;60.26;101735.19;5128532;28;20074;-64
2022/02/05 09:27:14;;;;;;;17.50;5.78;;;11.80;99.90;;;12.12;60.53;101902.84;5145470;27;20047;-63
2022/02/05 09:29:56;;;;;;;16.90;6.55;;;11.90;99.90;;;12.08;58.71;101888.69;5112762;28;20040;-62
2022/02/05 09:32:25;;;;;;;25.33;6.93;;;12.00;99.90;;;11.98;57.98;101849.72;5112678;28;20101;-64
2022/02/05 09:34:53;;;;;;;15.68;6.28;;;12.20;99.90;;;12.53;58.45;101882.72;5112278;28;20043;-64
2022/02/05 09:37:22;;;;;;;15.68;5.93;;;12.30;99.90;;;12.43;58.36;101891.53;5112731;28;20424;-64
2022/02/05 09:39:51;;;;;;;19.17;7.18;;;12.30;99.90;;;12.11;58.72;101840.09;5130303;27;20067;-64
2022/02/05 09:42:24;;;;;;;21.33;6.18;;;12.20;99.90;;;12.68;57.92;101881.00;5116535;27;20044;-64
2022/02/05 09:44:53;;;;;;;16.05;5.90;;;12.50;99.90;;;12.53;57.49;101854.44;5116285;28;20047;-64
2022/02/05 09:47:22;;;;;;;15.40;6.05;;;12.50;99.90;;;12.67;56.89;101865.97;5116228;28;20052;-64
2022/02/05 09:49:51;;;;;;;19.80;6.10;;;12.60;99.90;;;12.86;56.46;101884.59;5116532;28;20381;-63
2022/02/05 09:52:24;;;;;;;18.17;5.90;;;12.60;99.90;;;12.72;56.97;101873.06;5116264;28;20047;-63
2022/02/05 09:54:53;;;;;;;21.52;6.57;;;12.60;99.90;;;13.01;56.92;101881.97;5116378;28;20043;-62
2022/02/05 09:57:23;;;;;;;19.75;5.88;;;12.80;99.90;;;13.37;56.08;101885.63;5115816;28;20044;-64
2022/02/05 09:59:56;;;;;;;21.92;6.13;;;13.10;99.90;;;13.58;54.79;101892.69;5114635;28;20463;-62
2022/02/05 10:02:30;;;;;;;12.70;5.72;;;13.30;99.90;;;13.55;54.25;101882.03;5149325;27;20048;-62
2022/02/05 10:05:04;;;;;;;19.30;6.03;;;13.50;99.90;;;13.61;53.84;101863.44;5115901;28;20489;-62
2022/02/05 10:07:56;;;;;;;16.48;6.00;;;13.50;99.90;;;11.86;53.93;101550.13;5115902;28;20126;-56
2022/02/05 10:10:26;;;;;;;14.85;5.63;;;13.60;99.90;;;12.80;54.91;101765.09;5115687;28;20044;-57
2022/02/05 10:13:13;;;;;;;19.92;6.40;;;13.30;99.90;;;13.92;54.84;101880.22;5115557;28;20058;-57
2022/02/05 10:15:43;;;;;;;15.80;5.65;;;13.60;99.90;;;13.94;54.18;101882.00;5115816;28;20068;-56
2022/02/05 10:18:25;;;;;;;17.13;5.97;;;13.80;99.90;;;13.64;53.94;101875.84;5115627;28;20046;-57
2022/02/05 10:20:55;;;;;;;22.60;6.30;;;13.50;99.90;;;13.60;53.52;101856.38;5115691;28;20048;-57
2022/02/05 10:23:24;;;;;;;16.92;5.28;;;13.60;99.90;;;13.69;53.63;101874.06;5115985;28;20048;-57
2022/02/05 10:25:55;;;;;;;14.88;5.60;;;13.50;99.90;;;13.75;54.03;101880.28;5115502;28;20069;-56
2022/02/05 10:28:25;;;;;;;16.45;5.70;;;13.50;99.90;;;13.71;53.46;101904.19;5115613;28;20056;-56
2022/02/05 10:30:55;;;;;;;20.90;7.18;;;13.50;99.90;;;13.32;54.49;101879.41;5115355;28;20481;-56
2022/02/05 10:33:29;;;;;;;15.80;5.90;;;13.20;99.90;;;12.88;54.87;101883.72;5115214;28;20051;-56
2022/02/05 10:36:04;;;;;;;17.70;6.10;;;12.80;99.90;;;12.45;56.11;101882.69;5115495;28;20047;-56
2022/02/05 10:39:09;;;;;;;21.13;6.55;;;12.40;99.90;;;12.29;56.86;101872.03;5115379;28;20481;-56
2022/02/05 10:44:32;;;;;;;22.30;6.05;;;11.90;99.90;;;12.03;57.55;101860.38;5115054;28;20044;-57
2022/02/05 10:47:01;;;;;;;16.85;5.72;;;11.80;99.90;;;11.95;58.23;101859.44;5115078;28;20121;-57
2022/02/05 10:49:44;;;;;;;17.17;6.38;;;11.70;99.90;;;11.95;58.39;101867.41;5114681;28;20090;-56
2022/02/05 10:52:26;;;;;;;22.70;6.40;;;11.70;99.90;;;11.93;58.88;101845.28;5130812;27;20112;-57
2022/02/05 10:55:05;;;;;;;18.55;5.53;;;11.80;99.90;;;12.07;59.20;101871.03;5114879;28;20055;-57
2022/02/05 10:57:40;;;;;;;16.67;5.65;;;11.80;99.90;;;12.09;59.60;101863.06;5114961;28;20097;-56
2022/02/05 11:05:50;;;;;;;19.63;5.75;;;11.80;99.90;;;12.35;59.14;101872.91;5114884;28;20044;-56
2022/02/05 11:08:20;;;;;;;23.45;6.53;;;12.10;99.90;;;12.42;58.47;101855.28;5114402;28;20063;-56
2022/02/05 11:19:19;;;;;;;24.75;7.35;;;12.20;99.90;;;12.33;57.10;101848.16;5114485;28;20548;-56
2022/02/05 11:21:52;;;;;;;18.85;5.60;;;12.10;99.90;;;12.35;57.43;101851.69;5114804;28;20047;-56
2022/02/05 11:24:24;;;;;;;17.95;6.05;;;12.20;99.90;;;12.31;57.73;101843.72;5114409;28;20047;-57
2022/02/05 11:26:53;;;;;;;17.45;5.18;;;12.10;99.90;;;12.39;57.64;101847.28;5114421;28;20044;-56
2022/02/05 11:29:31;;;;;;;17.17;5.53;;;12.10;99.90;;;11.10;57.70;101652.25;5114320;28;20031;-57
2022/02/05 11:32:26;;;;;;;14.82;5.13;;;12.00;99.90;;;11.94;57.72;101836.47;5114208;28;20052;-57
2022/02/05 11:35:07;;;;;;;16.10;5.60;;;11.80;99.90;;;12.07;57.77;101827.69;5114558;28;20043;-56
2022/02/05 11:37:57;;;;;;;19.13;6.03;;;11.80;99.90;;;11.52;58.22;101792.88;5114172;28;20074;-57
2022/02/05 11:40:51;;;;;;;22.38;6.07;;;11.60;99.90;;;11.92;58.71;101824.97;5113012;28;20043;-57
2022/02/05 11:43:24;;;;;;;25.13;6.32;;;11.60;99.90;;;11.74;58.94;101826.66;5114074;28;20069;-57
2022/02/05 11:46:10;;;;;;;25.02;7.07;;;11.50;99.90;;;11.56;60.01;101826.47;5129783;27;20100;-56
2022/02/05 11:48:55;;;;;;;21.38;5.90;;;11.40;99.90;;;11.42;60.82;101824.63;5113916;28;20481;-57
2022/02/05 11:51:27;;;;;;;18.42;5.40;;;11.20;99.90;;;11.36;60.67;101813.97;5113985;28;20126;-57
2022/02/05 11:54:18;;;;;;;19.95;5.70;;;11.20;99.90;;;11.29;61.10;101828.91;5112540;28;20105;-58
2022/02/05 11:56:55;;;;;;;24.88;6.88;;;11.10;99.90;;;11.40;63.13;101821.94;5113675;28;20092;-56
2022/02/05 11:59:26;;;;;;;24.50;6.57;;;11.10;99.90;;;11.29;63.04;101828.91;5113996;28;20035;-57
2022/02/05 12:02:15;;;;;;;18.25;5.40;;;11.10;99.90;;;10.97;61.78;101795.09;5113081;28;20164;-56
2022/02/05 12:04:46;;;;;;;27.38;6.93;;;10.90;99.90;;;10.90;63.09;101800.34;5113762;28;20458;-57
2022/02/05 12:07:17;;;;;;;20.60;6.07;;;10.80;99.90;;;11.03;63.94;101777.53;5113448;28;20043;-61
2022/02/05 12:09:57;;;;;;;21.05;5.45;;;10.90;99.90;;;11.20;64.30;101791.78;5113627;28;20066;-56
2022/02/05 12:12:39;;;;;;;21.17;6.50;;;10.90;99.90;;;11.50;64.10;101786.69;5113488;28;20464;-57
2022/02/05 12:15:25;;;;;;;21.33;6.40;;;11.20;99.90;;;11.37;63.88;101799.84;5113519;28;20047;-57
2022/02/05 12:18:21;;;;;;;19.77;5.70;;;11.20;99.90;;;11.60;63.62;101792.94;5113463;28;20477;-57